sensor_id;sensor_type;location;lat;lon;timestamp;pressure;altitude;pressure_sealevel;temperature
69785;BMP280;14177;51.520;6.764;2023-12-22T00:00:17;99901.31;;;6.15
69785;BMP280;14177;51.520;6.764;2023-12-22T00:02:44;99916.78;;;6.15
69785;BMP280;14177;51.520;6.764;2023-12-22T00:05:11;99912.59;;;6.11
69785;BMP280;14177;51.520;6.764;2023-12-22T00:07:37;99908.25;;;6.13
69785;BMP280;14177;51.520;6.764;2023-12-22T00:10:05;99903.09;;;6.13
69785;BMP280;14177;51.520;6.764;2023-12-22T00:12:32;99917.66;;;6.14
69785;BMP280;14177;51.520;6.764;2023-12-22T00:14:59;99927.16;;;6.12
69785;BMP280;14177;51.520;6.764;2023-12-22T00:21:50;99927.09;;;6.15
69785;BMP280;14177;51.520;6.764;2023-12-22T00:30:18;99949.19;;;6.25
69785;BMP280;14177;51.520;6.764;2023-12-22T00:33:21;99935.41;;;6.25
69785;BMP280;14177;51.520;6.764;2023-12-22T00:36:38;99939.66;;;6.27
69785;BMP280;14177;51.520;6.764;2023-12-22T00:39:50;99937.16;;;6.24
69785;BMP280;14177;51.520;6.764;2023-12-22T00:42:53;99949.91;;;6.30
69785;BMP280;14177;51.520;6.764;2023-12-22T00:45:51;99944.75;;;6.30
69785;BMP280;14177;51.520;6.764;2023-12-22T00:48:32;99956.75;;;6.31
69785;BMP280;14177;51.520;6.764;2023-12-22T00:51:30;99961.75;;;6.37
69785;BMP280;14177;51.520;6.764;2023-12-22T00:54:41;99961.69;;;6.40
69785;BMP280;14177;51.520;6.764;2023-12-22T01:01:27;99981.44;;;6.41
69785;BMP280;14177;51.520;6.764;2023-12-22T01:04:41;99974.41;;;6.46
69785;BMP280;14177;51.520;6.764;2023-12-22T01:07:59;99963.53;;;6.35
69785;BMP280;14177;51.520;6.764;2023-12-22T01:11:06;99977.16;;;6.40
69785;BMP280;14177;51.520;6.764;2023-12-22T01:13:53;99978.94;;;6.38
69785;BMP280;14177;51.520;6.764;2023-12-22T01:29:24;100068.03;;;5.82
69785;BMP280;14177;51.520;6.764;2023-12-22T01:37:51;100019.25;;;5.35
69785;BMP280;14177;51.520;6.764;2023-12-22T01:46:50;100033.50;;;5.49
69785;BMP280;14177;51.520;6.764;2023-12-22T01:49:21;100040.25;;;5.55
69785;BMP280;14177;51.520;6.764;2023-12-22T01:51:49;100039.25;;;5.62
69785;BMP280;14177;51.520;6.764;2023-12-22T01:54:16;100024.56;;;5.65
69785;BMP280;14177;51.520;6.764;2023-12-22T01:56:46;100040.00;;;5.67
69785;BMP280;14177;51.520;6.764;2023-12-22T01:59:13;100039.13;;;5.68
69785;BMP280;14177;51.520;6.764;2023-12-22T02:01:42;100031.41;;;5.66
69785;BMP280;14177;51.520;6.764;2023-12-22T02:04:15;100012.47;;;5.69
69785;BMP280;14177;51.520;6.764;2023-12-22T02:06:42;100005.53;;;5.71
69785;BMP280;14177;51.520;6.764;2023-12-22T02:09:09;100000.31;;;5.74
69785;BMP280;14177;51.520;6.764;2023-12-22T02:11:38;100024.41;;;5.71
69785;BMP280;14177;51.520;6.764;2023-12-22T02:14:07;100032.16;;;5.71
69785;BMP280;14177;51.520;6.764;2023-12-22T02:17:11;100022.66;;;5.73
69785;BMP280;14177;51.520;6.764;2023-12-22T02:19:43;100027.13;;;5.65
69785;BMP280;14177;51.520;6.764;2023-12-22T02:22:12;100028.13;;;5.60
69785;BMP280;14177;51.520;6.764;2023-12-22T02:24:41;100037.63;;;5.58
69785;BMP280;14177;51.520;6.764;2023-12-22T02:27:34;100035.03;;;5.58
69785;BMP280;14177;51.520;6.764;2023-12-22T02:32:41;100015.25;;;5.60
69785;BMP280;14177;51.520;6.764;2023-12-22T02:35:15;100011.78;;;5.61
69785;BMP280;14177;51.520;6.764;2023-12-22T02:37:46;100008.34;;;5.62
69785;BMP280;14177;51.520;6.764;2023-12-22T02:40:17;100034.03;;;5.65
69785;BMP280;14177;51.520;6.764;2023-12-22T02:42:46;100020.94;;;5.74
69785;BMP280;14177;51.520;6.764;2023-12-22T02:45:19;99989.13;;;5.75
69785;BMP280;14177;51.520;6.764;2023-12-22T02:47:47;100005.47;;;5.74
69785;BMP280;14177;51.520;6.764;2023-12-22T02:50:16;100010.59;;;5.75
69785;BMP280;14177;51.520;6.764;2023-12-22T02:52:43;100017.44;;;5.76
69785;BMP280;14177;51.520;6.764;2023-12-22T02:55:11;100022.59;;;5.76
69785;BMP280;14177;51.520;6.764;2023-12-22T02:57:38;100025.91;;;5.83
69785;BMP280;14177;51.520;6.764;2023-12-22T03:00:06;100020.75;;;5.83
69785;BMP280;14177;51.520;6.764;2023-12-22T03:02:34;100004.38;;;5.84
69785;BMP280;14177;51.520;6.764;2023-12-22T03:05:01;100015.69;;;5.78
69785;BMP280;14177;51.520;6.764;2023-12-22T03:07:28;100004.59;;;5.75
69785;BMP280;14177;51.520;6.764;2023-12-22T03:09:55;100010.69;;;5.71
69785;BMP280;14177;51.520;6.764;2023-12-22T03:12:22;100005.56;;;5.69
69785;BMP280;14177;51.520;6.764;2023-12-22T03:14:49;99986.69;;;5.69
69785;BMP280;14177;51.520;6.764;2023-12-22T03:17:16;99996.06;;;5.73
69785;BMP280;14177;51.520;6.764;2023-12-22T03:19:43;99984.06;;;5.72
69785;BMP280;14177;51.520;6.764;2023-12-22T03:22:10;100006.28;;;5.76
69785;BMP280;14177;51.520;6.764;2023-12-22T03:24:37;99990.78;;;5.79
69785;BMP280;14177;51.520;6.764;2023-12-22T03:27:05;99968.47;;;5.78
69785;BMP280;14177;51.520;6.764;2023-12-22T03:29:32;99994.19;;;5.81
69785;BMP280;14177;51.520;6.764;2023-12-22T03:31:59;99979.53;;;5.83
69785;BMP280;14177;51.520;6.764;2023-12-22T03:34:26;99992.41;;;5.83
69785;BMP280;14177;51.520;6.764;2023-12-22T03:36:53;99986.34;;;5.84
69785;BMP280;14177;51.520;6.764;2023-12-22T03:39:20;99974.31;;;5.84
69785;BMP280;14177;51.520;6.764;2023-12-22T03:41:47;99988.91;;;5.84
69785;BMP280;14177;51.520;6.764;2023-12-22T03:44:14;99994.06;;;5.84
69785;BMP280;14177;51.520;6.764;2023-12-22T03:46:41;99996.56;;;5.88
69785;BMP280;14177;51.520;6.764;2023-12-22T03:49:08;99993.94;;;5.90
69785;BMP280;14177;51.520;6.764;2023-12-22T03:51:35;99996.50;;;5.90
69785;BMP280;14177;51.520;6.764;2023-12-22T03:54:04;99992.28;;;5.87
69785;BMP280;14177;51.520;6.764;2023-12-22T03:56:31;99990.53;;;5.88
69785;BMP280;14177;51.520;6.764;2023-12-22T03:58:58;99994.88;;;5.87
69785;BMP280;14177;51.520;6.764;2023-12-22T04:01:25;99993.19;;;5.85
69785;BMP280;14177;51.520;6.764;2023-12-22T04:03:52;99994.06;;;5.84
69785;BMP280;14177;51.520;6.764;2023-12-22T04:06:19;99995.75;;;5.85
69785;BMP280;14177;51.520;6.764;2023-12-22T04:08:46;99992.34;;;5.84
69785;BMP280;14177;51.520;6.764;2023-12-22T04:11:13;99988.03;;;5.85
69785;BMP280;14177;51.520;6.764;2023-12-22T04:13:40;99995.69;;;5.88
69785;BMP280;14177;51.520;6.764;2023-12-22T04:16:07;99963.94;;;5.86
69785;BMP280;14177;51.520;6.764;2023-12-22T04:18:34;99983.63;;;5.90
69785;BMP280;14177;51.520;6.764;2023-12-22T04:21:01;99975.78;;;5.94
69785;BMP280;14177;51.520;6.764;2023-12-22T04:23:28;99994.72;;;5.93
69785;BMP280;14177;51.520;6.764;2023-12-22T04:25:55;99980.88;;;5.97
69785;BMP280;14177;51.520;6.764;2023-12-22T04:28:22;100002.88;;;6.10
69785;BMP280;14177;51.520;6.764;2023-12-22T04:30:49;100020.72;;;6.17
69785;BMP280;14177;51.520;6.764;2023-12-22T04:33:17;100037.81;;;6.21
69785;BMP280;14177;51.520;6.764;2023-12-22T04:35:44;100060.16;;;6.22
69785;BMP280;14177;51.520;6.764;2023-12-22T04:38:11;100049.91;;;6.19
69785;BMP280;14177;51.520;6.764;2023-12-22T04:40:38;100053.44;;;6.15
69785;BMP280;14177;51.520;6.764;2023-12-22T04:43:05;100057.94;;;6.07
69785;BMP280;14177;51.520;6.764;2023-12-22T04:45:32;100051.28;;;5.99
69785;BMP280;14177;51.520;6.764;2023-12-22T04:47:59;100062.63;;;5.91
69785;BMP280;14177;51.520;6.764;2023-12-22T04:50:26;100064.47;;;5.86
69785;BMP280;14177;51.520;6.764;2023-12-22T04:52:53;100095.56;;;5.80
69785;BMP280;14177;51.520;6.764;2023-12-22T04:55:20;100100.81;;;5.74
69785;BMP280;14177;51.520;6.764;2023-12-22T04:57:47;100080.34;;;5.68
69785;BMP280;14177;51.520;6.764;2023-12-22T05:00:15;100070.94;;;5.65
69785;BMP280;14177;51.520;6.764;2023-12-22T05:02:42;100059.88;;;5.62
69785;BMP280;14177;51.520;6.764;2023-12-22T05:05:17;100061.63;;;5.58
69785;BMP280;14177;51.520;6.764;2023-12-22T05:08:13;100063.44;;;5.55
69785;BMP280;14177;51.520;6.764;2023-12-22T05:11:06;100084.88;;;5.55
69785;BMP280;14177;51.520;6.764;2023-12-22T05:13:42;100091.75;;;5.56
69785;BMP280;14177;51.520;6.764;2023-12-22T05:16:20;100098.59;;;5.57
69785;BMP280;14177;51.520;6.764;2023-12-22T05:19:14;100099.47;;;5.56
69785;BMP280;14177;51.520;6.764;2023-12-22T05:21:48;100090.91;;;5.56
69785;BMP280;14177;51.520;6.764;2023-12-22T05:24:25;100104.66;;;5.55
69785;BMP280;14177;51.520;6.764;2023-12-22T05:30:13;100095.19;;;5.55
69785;BMP280;14177;51.520;6.764;2023-12-22T05:32:49;100096.06;;;5.56
69785;BMP280;14177;51.520;6.764;2023-12-22T05:35:29;100096.94;;;5.55
69785;BMP280;14177;51.520;6.764;2023-12-22T05:38:23;100084.94;;;5.54
69785;BMP280;14177;51.520;6.764;2023-12-22T05:41:04;100086.59;;;5.56
69785;BMP280;14177;51.520;6.764;2023-12-22T05:43:42;100076.28;;;5.58
69785;BMP280;14177;51.520;6.764;2023-12-22T05:46:11;100092.56;;;5.58
69785;BMP280;14177;51.520;6.764;2023-12-22T05:48:49;100085.69;;;5.59
69785;BMP280;14177;51.520;6.764;2023-12-22T05:51:25;100091.72;;;5.58
69785;BMP280;14177;51.520;6.764;2023-12-22T05:54:01;100089.16;;;5.58
69785;BMP280;14177;51.520;6.764;2023-12-22T05:56:30;100085.69;;;5.59
69785;BMP280;14177;51.520;6.764;2023-12-22T05:58:57;100091.69;;;5.59
69785;BMP280;14177;51.520;6.764;2023-12-22T06:01:24;100097.63;;;5.63
69785;BMP280;14177;51.520;6.764;2023-12-22T06:03:51;100085.50;;;5.68
69785;BMP280;14177;51.520;6.764;2023-12-22T06:06:18;100082.03;;;5.69
69785;BMP280;14177;51.520;6.764;2023-12-22T06:08:45;100085.44;;;5.71
69785;BMP280;14177;51.520;6.764;2023-12-22T06:11:12;100078.59;;;5.70
69785;BMP280;14177;51.520;6.764;2023-12-22T06:13:39;100083.69;;;5.71
69785;BMP280;14177;51.520;6.764;2023-12-22T06:16:11;100086.25;;;5.73
69785;BMP280;14177;51.520;6.764;2023-12-22T06:18:38;100081.09;;;5.73
69785;BMP280;14177;51.520;6.764;2023-12-22T06:21:06;100089.63;;;5.75
69785;BMP280;14177;51.520;6.764;2023-12-22T06:23:33;100088.75;;;5.76
69785;BMP280;14177;51.520;6.764;2023-12-22T06:26:00;100071.56;;;5.78
69785;BMP280;14177;51.520;6.764;2023-12-22T06:28:29;100068.91;;;5.81
69785;BMP280;14177;51.520;6.764;2023-12-22T06:30:56;100072.31;;;5.83
69785;BMP280;14177;51.520;6.764;2023-12-22T06:33:23;100082.56;;;5.84
69785;BMP280;14177;51.520;6.764;2023-12-22T06:35:50;100087.72;;;5.84
69785;BMP280;14177;51.520;6.764;2023-12-22T06:38:20;100091.06;;;5.88
69785;BMP280;14177;51.520;6.764;2023-12-22T06:40:47;100093.66;;;5.88
69785;BMP280;14177;51.520;6.764;2023-12-22T06:43:15;100075.53;;;5.91
69785;BMP280;14177;51.520;6.764;2023-12-22T06:45:42;100064.31;;;5.93
69785;BMP280;14177;51.520;6.764;2023-12-22T06:48:09;100065.97;;;5.96
69785;BMP280;14177;51.520;6.764;2023-12-22T06:50:37;100078.84;;;5.97
69785;BMP280;14177;51.520;6.764;2023-12-22T06:53:06;100077.97;;;5.97
69785;BMP280;14177;51.520;6.764;2023-12-22T06:55:47;100078.84;;;5.97
69785;BMP280;14177;51.520;6.764;2023-12-22T06:58:14;100080.47;;;5.99
69785;BMP280;14177;51.520;6.764;2023-12-22T07:00:41;100056.38;;;6.02
69785;BMP280;14177;51.520;6.764;2023-12-22T07:03:08;100058.00;;;6.04
69785;BMP280;14177;51.520;6.764;2023-12-22T07:05:36;100051.13;;;6.05
69785;BMP280;14177;51.520;6.764;2023-12-22T07:08:04;100044.16;;;6.08
69785;BMP280;14177;51.520;6.764;2023-12-22T07:10:32;100051.75;;;6.14
69785;BMP280;14177;51.520;6.764;2023-12-22T07:12:59;100044.75;;;6.19
69785;BMP280;14177;51.520;6.764;2023-12-22T07:15:27;100047.03;;;6.31
69785;BMP280;14177;51.520;6.764;2023-12-22T07:17:55;100057.84;;;6.45
69785;BMP280;14177;51.520;6.764;2023-12-22T07:20:22;100059.13;;;6.61
69785;BMP280;14177;51.520;6.764;2023-12-22T07:22:49;100052.03;;;6.69
69785;BMP280;14177;51.520;6.764;2023-12-22T07:25:17;100046.47;;;6.84
69785;BMP280;14177;51.520;6.764;2023-12-22T07:27:46;100040.91;;;6.99
69785;BMP280;14177;51.520;6.764;2023-12-22T07:30:14;100035.50;;;7.07
69785;BMP280;14177;51.520;6.764;2023-12-22T07:32:45;100033.59;;;7.13
69785;BMP280;14177;51.520;6.764;2023-12-22T07:35:15;100038.50;;;7.22
69785;BMP280;14177;51.520;6.764;2023-12-22T07:37:44;100034.84;;;7.29
69785;BMP280;14177;51.520;6.764;2023-12-22T07:40:12;100030.28;;;7.37
69785;BMP280;14177;51.520;6.764;2023-12-22T07:42:39;100044.00;;;7.39
69785;BMP280;14177;51.520;6.764;2023-12-22T07:45:06;100037.84;;;7.43
69785;BMP280;14177;51.520;6.764;2023-12-22T07:47:38;100042.94;;;7.46
69785;BMP280;14177;51.520;6.764;2023-12-22T07:50:06;100042.03;;;7.48
69785;BMP280;14177;51.520;6.764;2023-12-22T07:52:36;100040.25;;;7.50
69785;BMP280;14177;51.520;6.764;2023-12-22T07:55:08;100052.91;;;7.58
69785;BMP280;14177;51.520;6.764;2023-12-22T07:57:38;100048.47;;;7.63
69785;BMP280;14177;51.520;6.764;2023-12-22T08:00:06;100046.75;;;7.62
69785;BMP280;14177;51.520;6.764;2023-12-22T08:02:37;100057.97;;;7.62
69785;BMP280;14177;51.520;6.764;2023-12-22T08:05:05;100051.78;;;7.66
69785;BMP280;14177;51.520;6.764;2023-12-22T08:07:32;100054.34;;;7.68
69785;BMP280;14177;51.520;6.764;2023-12-22T08:09:59;100058.56;;;7.70
69785;BMP280;14177;51.520;6.764;2023-12-22T08:12:26;100063.72;;;7.70
69785;BMP280;14177;51.520;6.764;2023-12-22T08:14:54;100055.84;;;7.75
69785;BMP280;14177;51.520;6.764;2023-12-22T08:17:21;100056.69;;;7.75
69785;BMP280;14177;51.520;6.764;2023-12-22T08:19:48;100072.09;;;7.78
69785;BMP280;14177;51.520;6.764;2023-12-22T08:22:18;100061.75;;;7.78
69785;BMP280;14177;51.520;6.764;2023-12-22T08:24:46;100065.81;;;7.87
69785;BMP280;14177;51.520;6.764;2023-12-22T08:27:15;100053.63;;;7.90
69785;BMP280;14177;51.520;6.764;2023-12-22T08:29:42;100058.69;;;7.93
69785;BMP280;14177;51.520;6.764;2023-12-22T08:32:09;100061.19;;;7.96
69785;BMP280;14177;51.520;6.764;2023-12-22T08:34:36;100057.72;;;7.97
69785;BMP280;14177;51.520;6.764;2023-12-22T08:37:03;100057.53;;;8.03
69785;BMP280;14177;51.520;6.764;2023-12-22T08:39:30;100061.81;;;8.03
69785;BMP280;14177;51.520;6.764;2023-12-22T08:41:58;100056.63;;;8.04
69785;BMP280;14177;51.520;6.764;2023-12-22T08:44:25;100053.06;;;8.07
69785;BMP280;14177;51.520;6.764;2023-12-22T08:46:52;100046.09;;;8.10
69785;BMP280;14177;51.520;6.764;2023-12-22T08:49:19;100054.50;;;8.17
69785;BMP280;14177;51.520;6.764;2023-12-22T08:51:46;100064.75;;;8.20
69785;BMP280;14177;51.520;6.764;2023-12-22T08:54:13;100076.72;;;8.24
69785;BMP280;14177;51.520;6.764;2023-12-22T08:56:40;100045.53;;;8.28
69785;BMP280;14177;51.520;6.764;2023-12-22T08:59:07;100054.56;;;8.14
69785;BMP280;14177;51.520;6.764;2023-12-22T09:01:35;100048.75;;;8.07
69785;BMP280;14177;51.520;6.764;2023-12-22T09:04:03;100051.47;;;8.03
69785;BMP280;14177;51.520;6.764;2023-12-22T09:06:31;100051.81;;;7.94
69785;BMP280;14177;51.520;6.764;2023-12-22T09:08:58;100053.72;;;7.87
69785;BMP280;14177;51.520;6.764;2023-12-22T09:11:25;100048.81;;;7.78
69785;BMP280;14177;51.520;6.764;2023-12-22T09:13:52;100042.22;;;7.70
69785;BMP280;14177;51.520;6.764;2023-12-22T09:16:23;100046.06;;;7.57
69785;BMP280;14177;51.520;6.764;2023-12-22T09:18:52;100034.28;;;7.48
69785;BMP280;14177;51.520;6.764;2023-12-22T09:21:20;100021.66;;;7.38
69785;BMP280;14177;51.520;6.764;2023-12-22T09:23:47;100025.31;;;7.31
69785;BMP280;14177;51.520;6.764;2023-12-22T09:26:15;100040.16;;;7.24
69785;BMP280;14177;51.520;6.764;2023-12-22T09:28:43;100017.06;;;7.18
69785;BMP280;14177;51.520;6.764;2023-12-22T09:31:11;100037.00;;;7.15
69785;BMP280;14177;51.520;6.764;2023-12-22T09:33:41;100039.69;;;7.11
69785;BMP280;14177;51.520;6.764;2023-12-22T09:36:09;100019.97;;;7.08
69785;BMP280;14177;51.520;6.764;2023-12-22T09:38:37;100018.28;;;7.07
69785;BMP280;14177;51.520;6.764;2023-12-22T09:41:04;100028.53;;;7.10
69785;BMP280;14177;51.520;6.764;2023-12-22T09:43:35;100033.59;;;7.13
69785;BMP280;14177;51.520;6.764;2023-12-22T09:46:04;100019.63;;;7.20
69785;BMP280;14177;51.520;6.764;2023-12-22T09:48:33;100023.59;;;7.31
69785;BMP280;14177;51.520;6.764;2023-12-22T09:51:03;100028.47;;;7.40
69785;BMP280;14177;51.520;6.764;2023-12-22T09:53:31;100017.09;;;7.46
69785;BMP280;14177;51.520;6.764;2023-12-22T09:56:00;100006.59;;;7.52
69785;BMP280;14177;51.520;6.764;2023-12-22T09:58:27;100001.31;;;7.55
69785;BMP280;14177;51.520;6.764;2023-12-22T10:00:55;100007.25;;;7.58
69785;BMP280;14177;51.520;6.764;2023-12-22T10:03:25;100010.66;;;7.59
69785;BMP280;14177;51.520;6.764;2023-12-22T10:05:53;100020.97;;;7.60
69785;BMP280;14177;51.520;6.764;2023-12-22T10:08:20;100000.16;;;7.65
69785;BMP280;14177;51.520;6.764;2023-12-22T10:10:48;100007.81;;;7.68
69785;BMP280;14177;51.520;6.764;2023-12-22T10:13:15;100005.94;;;7.73
69785;BMP280;14177;51.520;6.764;2023-12-22T10:15:44;99986.03;;;7.75
69785;BMP280;14177;51.520;6.764;2023-12-22T10:18:12;99988.34;;;7.84
69785;BMP280;14177;51.520;6.764;2023-12-22T10:20:40;99990.72;;;7.90
69785;BMP280;14177;51.520;6.764;2023-12-22T10:23:07;99979.28;;;7.97
69785;BMP280;14177;51.520;6.764;2023-12-22T10:25:34;99982.44;;;8.05
69785;BMP280;14177;51.520;6.764;2023-12-22T10:28:01;99982.31;;;8.09
69785;BMP280;14177;51.520;6.764;2023-12-22T10:30:29;99988.19;;;8.14
69785;BMP280;14177;51.520;6.764;2023-12-22T10:32:57;99983.63;;;8.22
69785;BMP280;14177;51.520;6.764;2023-12-22T10:35:24;99973.13;;;8.27
69785;BMP280;14177;51.520;6.764;2023-12-22T10:37:51;99984.22;;;8.30
69785;BMP280;14177;51.520;6.764;2023-12-22T10:40:21;99990.97;;;8.34
69785;BMP280;14177;51.520;6.764;2023-12-22T10:42:50;100007.66;;;8.26
69785;BMP280;14177;51.520;6.764;2023-12-22T10:45:18;99999.97;;;8.23
69785;BMP280;14177;51.520;6.764;2023-12-22T10:47:48;99987.25;;;8.17
69785;BMP280;14177;51.520;6.764;2023-12-22T10:50:19;100022.47;;;7.95
69785;BMP280;14177;51.520;6.764;2023-12-22T10:52:51;100034.28;;;7.76
69785;BMP280;14177;51.520;6.764;2023-12-22T10:55:19;100020.66;;;7.69
69785;BMP280;14177;51.520;6.764;2023-12-22T10:57:46;99999.19;;;7.67
69785;BMP280;14177;51.520;6.764;2023-12-22T11:00:16;99998.53;;;7.62
69785;BMP280;14177;51.520;6.764;2023-12-22T11:02:47;99995.06;;;7.62
69785;BMP280;14177;51.520;6.764;2023-12-22T11:05:16;99979.63;;;7.60
69785;BMP280;14177;51.520;6.764;2023-12-22T11:07:53;99973.59;;;7.60
69785;BMP280;14177;51.520;6.764;2023-12-22T11:10:21;99990.84;;;7.59
69785;BMP280;14177;51.520;6.764;2023-12-22T11:12:49;99989.97;;;7.60
69785;BMP280;14177;51.520;6.764;2023-12-22T11:15:18;99991.66;;;7.61
69785;BMP280;14177;51.520;6.764;2023-12-22T11:17:48;99982.16;;;7.62
69785;BMP280;14177;51.520;6.764;2023-12-22T11:20:17;99974.31;;;7.65
69785;BMP280;14177;51.520;6.764;2023-12-22T11:22:45;99958.72;;;7.66
69785;BMP280;14177;51.520;6.764;2023-12-22T11:25:14;99967.09;;;7.74
69785;BMP280;14177;51.520;6.764;2023-12-22T11:27:48;99954.03;;;7.79
69785;BMP280;14177;51.520;6.764;2023-12-22T11:30:34;99964.78;;;7.93
69785;BMP280;14177;51.520;6.764;2023-12-22T11:33:51;99955.56;;;8.10
69785;BMP280;14177;51.520;6.764;2023-12-22T11:36:41;99949.63;;;8.33
69785;BMP280;14177;51.520;6.764;2023-12-22T11:39:20;99949.81;;;8.51
69785;BMP280;14177;51.520;6.764;2023-12-22T11:42:15;99935.13;;;8.74
69785;BMP280;14177;51.520;6.764;2023-12-22T11:44:44;99941.41;;;8.92
69785;BMP280;14177;51.520;6.764;2023-12-22T11:47:13;99942.56;;;9.06
69785;BMP280;14177;51.520;6.764;2023-12-22T11:49:51;99939.56;;;9.17
69785;BMP280;14177;51.520;6.764;2023-12-22T11:52:26;99930.31;;;9.33
69785;BMP280;14177;51.520;6.764;2023-12-22T11:54:56;99939.41;;;9.43
69785;BMP280;14177;51.520;6.764;2023-12-22T11:57:39;99926.75;;;9.57
69785;BMP280;14177;51.520;6.764;2023-12-22T12:00:09;99923.19;;;9.59
69785;BMP280;14177;51.520;6.764;2023-12-22T12:02:54;99932.41;;;9.66
69785;BMP280;14177;51.520;6.764;2023-12-22T12:05:23;99920.31;;;9.66
69785;BMP280;14177;51.520;6.764;2023-12-22T12:07:51;99928.78;;;9.70
69785;BMP280;14177;51.520;6.764;2023-12-22T12:13:13;99933.47;;;9.82
69785;BMP280;14177;51.520;6.764;2023-12-22T12:15:43;99925.63;;;9.83
69785;BMP280;14177;51.520;6.764;2023-12-22T12:18:11;99926.41;;;9.85
69785;BMP280;14177;51.520;6.764;2023-12-22T12:20:44;99945.34;;;9.87
69785;BMP280;14177;51.520;6.764;2023-12-22T12:23:19;99936.34;;;9.96
69785;BMP280;14177;51.520;6.764;2023-12-22T12:26:04;99928.69;;;9.93
69785;BMP280;14177;51.520;6.764;2023-12-22T12:28:57;99921.75;;;9.93
69785;BMP280;14177;51.520;6.764;2023-12-22T12:31:45;99932.31;;;9.89
69785;BMP280;14177;51.520;6.764;2023-12-22T12:34:52;99908.53;;;9.79
69785;BMP280;14177;51.520;6.764;2023-12-22T12:37:36;99934.88;;;9.69
69785;BMP280;14177;51.520;6.764;2023-12-22T12:40:20;99930.72;;;9.65
69785;BMP280;14177;51.520;6.764;2023-12-22T12:43:04;99916.97;;;9.63
69785;BMP280;14177;51.520;6.764;2023-12-22T12:45:34;99903.19;;;9.63
69785;BMP280;14177;51.520;6.764;2023-12-22T12:48:16;99914.50;;;9.60
69785;BMP280;14177;51.520;6.764;2023-12-22T12:50:53;99924.09;;;9.58
69785;BMP280;14177;51.520;6.764;2023-12-22T12:53:37;99919.81;;;9.57
69785;BMP280;14177;51.520;6.764;2023-12-22T12:56:10;99919.88;;;9.56
69785;BMP280;14177;51.520;6.764;2023-12-22T12:58:55;99928.72;;;9.50
69785;BMP280;14177;51.520;6.764;2023-12-22T13:01:30;99936.00;;;9.42
69785;BMP280;14177;51.520;6.764;2023-12-22T13:04:08;99927.66;;;9.34
69785;BMP280;14177;51.520;6.764;2023-12-22T13:06:51;99925.25;;;9.30
69785;BMP280;14177;51.520;6.764;2023-12-22T13:09:20;99928.72;;;9.29
69785;BMP280;14177;51.520;6.764;2023-12-22T13:11:55;99916.63;;;9.29
69785;BMP280;14177;51.520;6.764;2023-12-22T13:14:32;99925.25;;;9.30
69785;BMP280;14177;51.520;6.764;2023-12-22T13:17:06;99923.66;;;9.26
69785;BMP280;14177;51.520;6.764;2023-12-22T13:19:38;99915.97;;;9.24
69785;BMP280;14177;51.520;6.764;2023-12-22T13:22:13;99910.66;;;9.27
69785;BMP280;14177;51.520;6.764;2023-12-22T13:24:55;99914.88;;;9.30
69785;BMP280;14177;51.520;6.764;2023-12-22T13:27:29;99898.50;;;9.29
69785;BMP280;14177;51.520;6.764;2023-12-22T13:30:04;99907.88;;;9.32
69785;BMP280;14177;51.520;6.764;2023-12-22T13:32:33;99924.97;;;9.37
69785;BMP280;14177;51.520;6.764;2023-12-22T13:35:03;99917.72;;;9.45
69785;BMP280;14177;51.520;6.764;2023-12-22T13:37:44;99912.28;;;9.51
69785;BMP280;14177;51.520;6.764;2023-12-22T13:40:20;99923.19;;;9.59
69785;BMP280;14177;51.520;6.764;2023-12-22T13:43:01;99931.38;;;9.70
69785;BMP280;14177;51.520;6.764;2023-12-22T13:45:33;99928.63;;;9.74
69785;BMP280;14177;51.520;6.764;2023-12-22T13:51:54;99941.13;;;9.85
69785;BMP280;14177;51.520;6.764;2023-12-22T13:54:32;99929.84;;;9.86
69785;BMP280;14177;51.520;6.764;2023-12-22T13:57:07;99948.00;;;9.86
69785;BMP280;14177;51.520;6.764;2023-12-22T13:59:54;99952.09;;;9.91
69785;BMP280;14177;51.520;6.764;2023-12-22T14:02:22;99941.66;;;9.93
69785;BMP280;14177;51.520;6.764;2023-12-22T14:04:50;99939.06;;;9.93
69785;BMP280;14177;51.520;6.764;2023-12-22T14:07:20;99939.06;;;9.93
69785;BMP280;14177;51.520;6.764;2023-12-22T14:09:49;99932.06;;;9.95
69785;BMP280;14177;51.520;6.764;2023-12-22T14:12:19;99932.97;;;9.94
69785;BMP280;14177;51.520;6.764;2023-12-22T14:14:59;99954.38;;;9.99
69785;BMP280;14177;51.520;6.764;2023-12-22T14:17:36;99945.47;;;10.06
69785;BMP280;14177;51.520;6.764;2023-12-22T14:20:14;99946.25;;;10.08
69785;BMP280;14177;51.520;6.764;2023-12-22T14:22:59;99949.63;;;10.10
69785;BMP280;14177;51.520;6.764;2023-12-22T14:25:42;99944.50;;;10.08
69785;BMP280;14177;51.520;6.764;2023-12-22T14:28:23;99942.88;;;10.06
69785;BMP280;14177;51.520;6.764;2023-12-22T14:31:01;99953.25;;;10.06
69785;BMP280;14177;51.520;6.764;2023-12-22T14:33:48;99955.84;;;10.06
69785;BMP280;14177;51.520;6.764;2023-12-22T14:36:40;99950.47;;;10.10
69785;BMP280;14177;51.520;6.764;2023-12-22T14:39:14;99958.13;;;10.13
69785;BMP280;14177;51.520;6.764;2023-12-22T14:41:54;99968.59;;;10.12
69785;BMP280;14177;51.520;6.764;2023-12-22T14:44:36;99960.78;;;10.12
69785;BMP280;14177;51.520;6.764;2023-12-22T14:47:28;99951.31;;;10.11
69785;BMP280;14177;51.520;6.764;2023-12-22T14:50:01;99951.25;;;10.12
69785;BMP280;14177;51.520;6.764;2023-12-22T14:52:40;99958.97;;;10.14
69785;BMP280;14177;51.520;6.764;2023-12-22T14:55:22;99961.63;;;10.12
69785;BMP280;14177;51.520;6.764;2023-12-22T14:58:24;99960.78;;;10.12
69785;BMP280;14177;51.520;6.764;2023-12-22T15:01:14;99967.03;;;10.08
69785;BMP280;14177;51.520;6.764;2023-12-22T15:04:06;99969.00;;;10.01
69785;BMP280;14177;51.520;6.764;2023-12-22T15:06:52;99984.53;;;10.03
69785;BMP280;14177;51.520;6.764;2023-12-22T15:09:43;99988.03;;;10.02
69785;BMP280;14177;51.520;6.764;2023-12-22T15:12:24;99983.06;;;9.96
69785;BMP280;14177;51.520;6.764;2023-12-22T15:15:03;99992.69;;;9.92
69785;BMP280;14177;51.520;6.764;2023-12-22T15:17:45;99999.88;;;9.86
69785;BMP280;14177;51.520;6.764;2023-12-22T15:20:29;99979.38;;;9.80
69785;BMP280;14177;51.520;6.764;2023-12-22T15:23:04;99983.13;;;9.73
69785;BMP280;14177;51.520;6.764;2023-12-22T15:25:31;99970.28;;;9.70
69785;BMP280;14177;51.520;6.764;2023-12-22T15:27:58;99979.69;;;9.72
69785;BMP280;14177;51.520;6.764;2023-12-22T15:30:25;99999.53;;;9.73
69785;BMP280;14177;51.520;6.764;2023-12-22T15:32:52;100005.56;;;9.74
69785;BMP280;14177;51.520;6.764;2023-12-22T15:35:19;100001.94;;;9.78
69785;BMP280;14177;51.520;6.764;2023-12-22T15:37:46;100005.44;;;9.77